createdAt,value
2023-05-04T00:02:13.509Z,10.61
2023-05-04T00:04:42.863Z,10.45
2023-05-04T00:07:10.749Z,10.24
2023-05-04T00:09:38.557Z,10.21
2023-05-04T00:12:08.237Z,10.33
2023-05-04T00:14:36.088Z,10.27
2023-05-04T00:17:06.844Z,10.24
2023-05-04T00:19:34.983Z,10.34
2023-05-04T00:22:03.348Z,10.30
2023-05-04T00:24:31.134Z,10.31
2023-05-04T00:26:58.879Z,10.18
2023-05-04T00:29:28.125Z,10.23
2023-05-04T00:31:56.206Z,10.22
2023-05-04T00:34:24.408Z,10.25
2023-05-04T00:36:52.330Z,10.23
2023-05-04T00:39:20.062Z,10.18
2023-05-04T00:41:47.783Z,9.83
2023-05-04T00:44:15.617Z,10.19
2023-05-04T00:46:45.237Z,10.20
2023-05-04T00:49:13.069Z,10.07
2023-05-04T00:51:41.125Z,10.05
2023-05-04T00:54:08.977Z,10.01
2023-05-04T00:56:41.139Z,10.04
2023-05-04T00:59:08.795Z,10.04
2023-05-04T01:01:36.662Z,10.00
2023-05-04T01:04:06.286Z,10.00
2023-05-04T01:06:47.247Z,9.98
2023-05-04T01:09:21.863Z,9.97
2023-05-04T01:11:56.322Z,9.86
2023-05-04T01:14:24.136Z,9.80
2023-05-04T01:16:55.703Z,9.78
2023-05-04T01:19:25.027Z,9.80
2023-05-04T01:21:54.246Z,9.62
2023-05-04T01:24:22.163Z,9.70
2023-05-04T01:26:57.911Z,9.64
2023-05-04T01:29:43.606Z,9.58
2023-05-04T01:32:15.406Z,9.68
2023-05-04T01:34:43.183Z,9.69
2023-05-04T01:37:12.444Z,9.66
2023-05-04T01:39:40.249Z,9.64
2023-05-04T01:42:08.340Z,9.53
2023-05-04T01:44:36.068Z,9.52
2023-05-04T01:47:04.155Z,9.50
2023-05-04T01:49:32.060Z,9.53
2023-05-04T01:51:59.844Z,9.52
2023-05-04T01:54:29.361Z,9.39
2023-05-04T01:56:57.196Z,9.38
2023-05-04T01:59:24.977Z,9.31
2023-05-04T02:01:52.902Z,9.40
2023-05-04T02:04:20.816Z,9.38
2023-05-04T02:06:49.069Z,9.36
2023-05-04T02:09:17.183Z,9.28
2023-05-04T02:11:46.520Z,9.33
2023-05-04T02:14:14.266Z,9.32
2023-05-04T02:16:42.125Z,9.21
2023-05-04T02:19:09.913Z,9.18
2023-05-04T02:21:37.648Z,9.12
2023-05-04T02:24:06.985Z,9.18
2023-05-04T02:26:36.246Z,9.21
2023-05-04T02:29:06.359Z,9.25
2023-05-04T02:31:34.337Z,9.19
2023-05-04T02:34:02.877Z,9.24
2023-05-04T02:36:30.628Z,9.18
2023-05-04T02:39:00.460Z,9.11
2023-05-04T02:41:28.329Z,9.22
2023-05-04T02:43:56.166Z,9.16
2023-05-04T02:46:26.862Z,9.10
2023-05-04T02:48:54.583Z,9.06
2023-05-04T02:51:22.319Z,9.00
2023-05-04T02:53:50.628Z,9.03
2023-05-04T02:56:18.371Z,9.02
2023-05-04T02:58:47.130Z,8.88
2023-05-04T03:01:14.993Z,8.91
2023-05-04T03:03:44.247Z,8.77
2023-05-04T03:06:12.173Z,8.77
2023-05-04T03:08:39.955Z,8.74
2023-05-04T03:11:07.759Z,8.62
2023-05-04T03:13:35.551Z,8.68
2023-05-04T03:16:03.285Z,8.68
2023-05-04T03:21:17.718Z,8.84
2023-05-04T03:23:45.592Z,8.83
2023-05-04T03:26:13.335Z,8.73
2023-05-04T03:28:41.318Z,8.78
2023-05-04T03:31:09.098Z,8.82
2023-05-04T03:33:36.896Z,8.79
2023-05-04T03:36:05.058Z,8.80
2023-05-04T03:38:34.371Z,8.82
2023-05-04T03:41:02.362Z,8.69
2023-05-04T03:43:30.118Z,8.76
2023-05-04T03:45:57.981Z,8.69
2023-05-04T03:48:25.834Z,8.43
2023-05-04T03:50:53.978Z,8.48
2023-05-04T03:53:21.779Z,8.52
2023-05-04T03:55:50.878Z,8.44
2023-05-04T03:58:18.628Z,8.42
2023-05-04T04:00:46.696Z,8.56
2023-05-04T04:03:14.738Z,8.45
2023-05-04T04:05:42.829Z,8.56
2023-05-04T04:08:10.777Z,8.35
2023-05-04T04:10:38.662Z,8.31
2023-05-04T04:13:07.996Z,8.33
2023-05-04T04:15:35.891Z,8.35
2023-05-04T04:18:03.766Z,8.33
2023-05-04T04:20:31.546Z,8.38
2023-05-04T04:22:59.299Z,8.28
2023-05-04T04:25:28.291Z,8.34
2023-05-04T04:27:56.092Z,8.37
2023-05-04T04:30:25.229Z,8.52
2023-05-04T04:32:53.836Z,8.39
2023-05-04T04:35:22.540Z,8.49
2023-05-04T04:37:51.059Z,8.56
2023-05-04T04:40:18.962Z,8.58
2023-05-04T04:42:46.794Z,8.64
2023-05-04T04:45:15.530Z,8.67
2023-05-04T04:47:45.204Z,8.71
2023-05-04T04:50:13.321Z,8.85
2023-05-04T04:52:41.781Z,8.98
2023-05-04T04:55:10.347Z,9.06
2023-05-04T04:57:38.316Z,9.17
2023-05-04T05:00:09.427Z,9.31
2023-05-04T05:02:37.669Z,9.40
2023-05-04T05:05:07.718Z,9.52
2023-05-04T05:07:36.450Z,9.55
2023-05-04T05:10:05.074Z,9.68
2023-05-04T05:12:33.195Z,9.79
2023-05-04T05:15:01.032Z,9.91
2023-05-04T05:17:28.840Z,9.81
2023-05-04T05:19:56.922Z,10.04
2023-05-04T05:22:26.108Z,10.35
2023-05-04T05:24:53.813Z,10.41
2023-05-04T05:27:21.867Z,10.59
2023-05-04T05:29:49.632Z,10.60
2023-05-04T05:32:17.330Z,10.74
2023-05-04T05:34:45.099Z,10.98
2023-05-04T05:37:12.797Z,11.04
2023-05-04T05:39:41.987Z,11.21
2023-05-04T05:42:09.911Z,11.03
2023-05-04T05:44:37.725Z,11.15
2023-05-04T05:47:05.820Z,11.25
2023-05-04T05:49:33.566Z,11.65
2023-05-04T05:52:01.348Z,11.89
2023-05-04T05:54:31.222Z,11.74
2023-05-04T05:57:01.038Z,11.83
2023-05-04T05:59:28.933Z,11.80
2023-05-04T06:01:56.806Z,11.99
2023-05-04T06:04:24.564Z,11.93
2023-05-04T06:06:52.749Z,12.30
2023-05-04T06:09:21.156Z,12.55
2023-05-04T06:11:49.028Z,12.79
2023-05-04T06:14:18.161Z,12.67
2023-05-04T06:16:46.239Z,12.63
2023-05-04T06:19:14.160Z,12.89
2023-05-04T06:21:41.920Z,12.33
2023-05-04T06:24:09.869Z,12.74
2023-05-04T06:26:37.825Z,13.15
2023-05-04T06:29:05.650Z,13.25
2023-05-04T06:31:35.723Z,13.80
2023-05-04T06:34:04.126Z,13.59
2023-05-04T06:36:32.234Z,13.77
2023-05-04T06:39:00.121Z,14.11
2023-05-04T06:41:27.987Z,14.36
2023-05-04T06:43:58.262Z,14.65
2023-05-04T06:46:27.031Z,14.93
2023-05-04T06:48:56.351Z,14.84
2023-05-04T06:51:24.415Z,14.97
2023-05-04T06:53:52.570Z,15.17
2023-05-04T06:56:20.406Z,15.44
2023-05-04T06:58:48.138Z,15.76
2023-05-04T07:01:18.203Z,15.55
2023-05-04T07:03:46.352Z,15.52
2023-05-04T07:06:15.835Z,15.40
2023-05-04T07:08:43.850Z,15.29
2023-05-04T07:11:11.827Z,15.85
2023-05-04T07:13:39.715Z,15.97
2023-05-04T07:16:08.713Z,15.82
2023-05-04T07:18:38.818Z,16.11
2023-05-04T07:23:45.794Z,17.51
2023-05-04T07:26:13.590Z,18.03
2023-05-04T07:28:43.651Z,18.45
2023-05-04T07:31:13.045Z,18.99
2023-05-04T07:33:41.014Z,18.80
2023-05-04T07:36:09.108Z,18.13
2023-05-04T07:38:37.603Z,17.96
2023-05-04T07:41:07.420Z,18.94
2023-05-04T07:43:35.164Z,18.73
2023-05-04T07:46:03.214Z,18.10
2023-05-04T07:48:31.451Z,19.12
2023-05-04T07:50:59.175Z,18.83
2023-05-04T07:53:27.319Z,20.12
2023-05-04T07:55:57.237Z,20.00
2023-05-04T07:58:26.697Z,20.22
2023-05-04T08:00:54.517Z,20.36
2023-05-04T08:03:22.402Z,20.39
2023-05-04T08:05:50.217Z,20.94
2023-05-04T08:08:18.008Z,21.04
2023-05-04T08:10:46.418Z,20.32
2023-05-04T08:13:14.170Z,20.86
2023-05-04T08:15:43.774Z,21.14
2023-05-04T08:18:11.610Z,21.69
2023-05-04T08:20:39.416Z,23.18
2023-05-04T08:23:07.543Z,22.22
2023-05-04T08:25:35.411Z,22.51
2023-05-04T08:28:03.371Z,22.26
2023-05-04T08:30:31.642Z,22.61
2023-05-04T08:33:00.804Z,22.54
2023-05-04T08:35:28.812Z,22.91
2023-05-04T08:37:56.679Z,23.35
2023-05-04T08:40:24.670Z,23.41
2023-05-04T08:42:52.614Z,23.64
2023-05-04T08:45:20.666Z,23.07
2023-05-04T08:47:48.583Z,23.62
2023-05-04T08:50:17.827Z,24.98
2023-05-04T08:52:47.685Z,23.09
2023-05-04T08:55:17.049Z,24.71
2023-05-04T08:57:45.540Z,24.84
2023-05-04T09:00:17.295Z,26.07
2023-05-04T09:02:45.517Z,23.93
2023-05-04T09:05:14.200Z,23.59
2023-05-04T09:07:43.377Z,24.13
2023-05-04T09:10:12.386Z,24.05
2023-05-04T09:12:40.530Z,23.64
2023-05-04T09:15:16.564Z,24.09
2023-05-04T09:17:56.896Z,24.12
2023-05-04T09:20:25.765Z,24.53
2023-05-04T09:23:07.964Z,24.43
2023-05-04T09:25:36.319Z,25.37
2023-05-04T09:28:04.093Z,24.07
2023-05-04T09:30:32.005Z,23.81
2023-05-04T09:32:59.946Z,24.88
2023-05-04T09:35:33.850Z,25.46
2023-05-04T09:38:02.540Z,25.59
2023-05-04T09:40:36.838Z,25.89
2023-05-04T09:43:04.881Z,25.69
2023-05-04T09:45:43.840Z,25.37
2023-05-04T09:48:20.049Z,26.43
2023-05-04T09:50:53.915Z,26.10
2023-05-04T09:53:25.053Z,25.32
2023-05-04T09:56:05.734Z,25.35
2023-05-04T09:58:35.720Z,25.77
2023-05-04T10:01:03.840Z,25.32
2023-05-04T10:03:32.813Z,27.03
2023-05-04T10:06:04.306Z,24.71
2023-05-04T10:08:32.485Z,25.85
2023-05-04T10:11:02.211Z,26.24
2023-05-04T10:13:30.038Z,25.84
2023-05-04T10:16:28.638Z,25.40
2023-05-04T10:19:18.267Z,26.58
2023-05-04T10:21:55.818Z,26.24
2023-05-04T10:24:48.618Z,28.55
2023-05-04T10:27:23.000Z,28.12
2023-05-04T10:29:52.542Z,29.31
2023-05-04T10:32:21.053Z,28.18
2023-05-04T10:34:49.269Z,28.45
2023-05-04T10:37:18.909Z,27.67
2023-05-04T10:39:53.736Z,28.08
2023-05-04T10:42:23.191Z,29.17
2023-05-04T10:44:52.709Z,28.04
2023-05-04T10:47:29.801Z,28.41
2023-05-04T10:50:05.158Z,28.70
2023-05-04T10:52:33.765Z,29.45
2023-05-04T10:55:02.765Z,29.30
2023-05-04T10:57:31.987Z,30.09
2023-05-04T11:00:00.515Z,30.38
2023-05-04T11:02:31.085Z,29.07
2023-05-04T11:05:05.317Z,30.03
2023-05-04T11:07:38.606Z,29.68
2023-05-04T11:10:08.434Z,30.38
2023-05-04T11:12:39.338Z,30.65
2023-05-04T11:15:08.413Z,31.25
2023-05-04T11:17:45.574Z,29.42
2023-05-04T11:20:21.046Z,29.19
2023-05-04T11:22:49.197Z,29.86
2023-05-04T11:25:17.398Z,29.69
2023-05-04T11:27:50.029Z,30.69
2023-05-04T11:30:18.190Z,28.82
2023-05-04T11:32:47.252Z,30.57
2023-05-04T11:35:17.684Z,32.00
2023-05-04T11:37:47.053Z,32.61
2023-05-04T11:40:16.617Z,31.88
2023-05-04T11:42:47.012Z,30.89
2023-05-04T11:45:18.457Z,32.15
2023-05-04T11:47:47.071Z,31.22
2023-05-04T11:50:16.797Z,32.04
2023-05-04T11:52:45.073Z,32.32
2023-05-04T11:55:14.447Z,32.03
2023-05-04T11:57:42.235Z,30.63
2023-05-04T12:00:13.018Z,31.66
2023-05-04T12:02:40.804Z,32.06
2023-05-04T12:05:14.846Z,32.51
2023-05-04T12:07:42.790Z,31.57
2023-05-04T12:10:11.027Z,33.27
2023-05-04T12:12:38.753Z,33.27
2023-05-04T12:15:07.530Z,33.49
2023-05-04T12:17:43.625Z,33.19
2023-05-04T12:20:12.365Z,33.31
2023-05-04T12:22:40.620Z,33.52
2023-05-04T12:25:11.167Z,33.39
2023-05-04T12:27:41.754Z,32.85
2023-05-04T12:30:11.075Z,30.29
2023-05-04T12:32:39.060Z,31.69
2023-05-04T12:35:09.222Z,31.71
2023-05-04T12:37:38.059Z,32.49
2023-05-04T12:40:21.105Z,32.57
2023-05-04T12:42:55.433Z,32.34
2023-05-04T12:45:23.394Z,31.48
2023-05-04T12:47:51.196Z,33.25
2023-05-04T12:50:20.316Z,31.23
2023-05-04T12:52:48.133Z,31.12
2023-05-04T12:55:15.974Z,31.61
2023-05-04T12:57:44.864Z,31.96
2023-05-04T13:00:13.977Z,34.34
2023-05-04T13:02:42.201Z,34.20
2023-05-04T13:05:10.212Z,32.67
2023-05-04T13:07:39.309Z,30.73
2023-05-04T13:10:08.100Z,32.64
2023-05-04T13:12:35.834Z,32.48
2023-05-04T13:15:03.577Z,30.77
2023-05-04T13:17:33.869Z,30.14
2023-05-04T13:20:02.577Z,30.84
2023-05-04T13:22:30.305Z,30.65
2023-05-04T13:24:59.901Z,30.11
2023-05-04T13:27:27.972Z,31.21
2023-05-04T13:29:55.746Z,33.13
2023-05-04T13:32:23.545Z,34.13
2023-05-04T13:34:51.502Z,32.89
2023-05-04T13:37:19.311Z,34.05
2023-05-04T13:39:47.361Z,31.72
2023-05-04T13:42:16.661Z,32.35
2023-05-04T13:44:45.630Z,31.54
2023-05-04T13:47:13.803Z,33.09
2023-05-04T13:49:41.606Z,32.82
2023-05-04T13:52:09.714Z,34.06
2023-05-04T13:54:37.493Z,33.27
2023-05-04T13:57:05.554Z,32.31
2023-05-04T13:59:34.663Z,32.20
2023-05-04T14:02:02.477Z,31.60
2023-05-04T14:04:30.288Z,33.70
2023-05-04T14:06:58.498Z,34.40
2023-05-04T14:09:27.024Z,33.25
2023-05-04T14:11:54.818Z,33.38
2023-05-04T14:14:22.827Z,33.41
2023-05-04T14:16:52.007Z,33.35
2023-05-04T14:19:19.821Z,32.60
2023-05-04T14:21:47.815Z,31.84
2023-05-04T14:24:15.623Z,32.73
2023-05-04T14:26:43.833Z,31.75
2023-05-04T14:29:11.558Z,32.21
2023-05-04T14:31:39.717Z,30.76
2023-05-04T14:34:08.844Z,31.81
2023-05-04T14:36:36.653Z,31.29
2023-05-04T14:39:04.646Z,31.30
2023-05-04T14:41:33.661Z,31.42
2023-05-04T14:44:01.817Z,31.43
2023-05-04T14:46:30.018Z,30.00
2023-05-04T14:48:57.832Z,29.54
2023-05-04T14:51:27.985Z,29.60
2023-05-04T14:53:55.803Z,30.37
2023-05-04T14:56:23.722Z,29.51
2023-05-04T14:58:51.456Z,29.00
2023-05-04T15:01:19.366Z,28.94
2023-05-04T15:03:47.273Z,29.53
2023-05-04T15:06:15.127Z,28.72
2023-05-04T15:08:44.322Z,29.57
2023-05-04T15:11:12.119Z,29.77
2023-05-04T15:13:39.965Z,28.96
2023-05-04T15:16:07.842Z,29.02
2023-05-04T15:18:35.825Z,28.39
2023-05-04T15:21:03.600Z,28.21
2023-05-04T15:23:31.390Z,27.31
2023-05-04T15:26:02.299Z,27.02
2023-05-04T15:28:30.227Z,26.67
2023-05-04T15:30:58.118Z,26.92
2023-05-04T15:33:25.819Z,26.52
2023-05-04T15:35:53.585Z,26.24
2023-05-04T15:38:22.094Z,25.73
2023-05-04T15:40:49.893Z,26.29
2023-05-04T15:43:19.059Z,25.89
2023-05-04T15:45:46.801Z,25.70
2023-05-04T15:48:14.534Z,26.04
2023-05-04T15:50:42.469Z,25.38
2023-05-04T15:53:10.207Z,25.32
2023-05-04T15:55:37.976Z,25.12
2023-05-04T15:58:05.971Z,25.27
2023-05-04T16:00:35.415Z,25.30
2023-05-04T16:03:03.237Z,24.66
2023-05-04T16:05:31.289Z,24.57
2023-05-04T16:07:59.052Z,24.54
2023-05-04T16:10:26.803Z,24.43
2023-05-04T16:12:54.601Z,24.36
2023-05-04T16:15:22.449Z,23.87
2023-05-04T16:17:51.612Z,23.56
2023-05-04T16:20:19.387Z,23.61
2023-05-04T16:22:47.174Z,23.47
2023-05-04T16:25:14.926Z,23.03
2023-05-04T16:27:42.723Z,22.92
2023-05-04T16:30:11.390Z,22.90
2023-05-04T16:32:39.276Z,22.89
2023-05-04T16:35:09.416Z,22.86
2023-05-04T16:37:38.203Z,22.60
2023-05-04T16:40:14.577Z,22.39
2023-05-04T16:42:42.607Z,22.20
2023-05-04T16:45:13.358Z,22.10
2023-05-04T16:47:41.523Z,22.24
2023-05-04T16:50:12.284Z,22.29
2023-05-04T16:52:40.511Z,22.15
2023-05-04T16:55:11.793Z,22.52
2023-05-04T16:57:40.081Z,22.15
2023-05-04T17:00:09.429Z,21.99
2023-05-04T17:02:37.463Z,22.14
2023-05-04T17:05:06.692Z,22.15
2023-05-04T17:07:36.082Z,22.05
2023-05-04T17:10:04.227Z,22.17
2023-05-04T17:12:32.226Z,22.19
2023-05-04T17:15:00.033Z,22.18
2023-05-04T17:17:27.755Z,22.15
2023-05-04T17:19:55.572Z,21.87
2023-05-04T17:22:23.613Z,21.75
2023-05-04T17:24:53.018Z,21.82
2023-05-04T17:27:20.778Z,21.75
2023-05-04T17:29:48.521Z,21.57
2023-05-04T17:32:16.407Z,21.31
2023-05-04T17:34:44.195Z,21.37
2023-05-04T17:37:12.059Z,21.35
2023-05-04T17:39:39.830Z,21.00
2023-05-04T17:42:10.618Z,21.08
2023-05-04T17:44:38.396Z,21.00
2023-05-04T17:47:06.268Z,20.83
2023-05-04T17:49:34.026Z,20.37
2023-05-04T17:52:01.905Z,20.31
2023-05-04T17:54:30.354Z,20.23
2023-05-04T17:56:58.134Z,20.06
2023-05-04T17:59:27.293Z,19.99
2023-05-04T18:01:55.132Z,19.89
2023-05-04T18:04:23.007Z,19.72
2023-05-04T18:06:51.020Z,19.53
2023-05-04T18:09:19.748Z,19.56
2023-05-04T18:11:48.263Z,19.46
2023-05-04T18:14:18.702Z,19.29
2023-05-04T18:16:47.969Z,19.16
2023-05-04T18:19:15.787Z,19.10
2023-05-04T18:21:43.783Z,19.15
2023-05-04T18:24:12.195Z,19.04
2023-05-04T18:26:40.010Z,18.92
2023-05-04T18:29:18.458Z,18.83
2023-05-04T18:31:48.419Z,18.87
2023-05-04T18:34:16.338Z,18.80
2023-05-04T18:36:44.525Z,18.67
2023-05-04T18:39:13.553Z,18.60
2023-05-04T18:41:41.445Z,18.66
2023-05-04T18:44:10.007Z,18.63
2023-05-04T18:46:37.811Z,18.58
2023-05-04T18:49:07.177Z,18.52
2023-05-04T18:51:34.952Z,18.53
2023-05-04T18:54:02.725Z,18.56
2023-05-04T18:56:30.689Z,18.38
2023-05-04T18:58:58.651Z,18.36
2023-05-04T19:01:27.871Z,18.28
2023-05-04T19:03:56.114Z,18.46
2023-05-04T19:06:25.260Z,18.34
2023-05-04T19:08:53.028Z,18.35
2023-05-04T19:11:21.539Z,18.25
2023-05-04T19:13:49.934Z,18.22
2023-05-04T19:16:17.928Z,18.17
2023-05-04T19:18:45.839Z,18.18
2023-05-04T19:21:13.687Z,18.10
2023-05-04T19:23:42.837Z,18.03
2023-05-04T19:26:10.693Z,18.03
2023-05-04T19:28:39.931Z,18.16
2023-05-04T19:31:07.911Z,18.06
2023-05-04T19:33:47.405Z,17.93
2023-05-04T19:36:16.892Z,17.83
2023-05-04T19:38:46.199Z,17.86
2023-05-04T19:41:14.725Z,17.71
2023-05-04T19:43:42.707Z,17.67
2023-05-04T19:46:10.549Z,17.42
2023-05-04T19:48:39.784Z,17.27
2023-05-04T19:51:07.732Z,17.25
2023-05-04T19:53:35.644Z,17.04
2023-05-04T19:56:05.075Z,17.08
2023-05-04T19:58:36.288Z,17.08
2023-05-04T20:01:04.231Z,17.11
2023-05-04T20:03:32.080Z,17.02
2023-05-04T20:05:59.847Z,16.96
2023-05-04T20:08:27.898Z,16.91
2023-05-04T20:10:55.757Z,16.98
2023-05-04T20:13:27.308Z,16.84
2023-05-04T20:15:59.464Z,16.65
2023-05-04T20:18:27.361Z,16.57
2023-05-04T20:20:55.194Z,16.59
2023-05-04T20:23:23.282Z,16.64
2023-05-04T20:25:51.197Z,16.51
2023-05-04T20:28:19.030Z,16.48
2023-05-04T20:30:48.097Z,16.53
2023-05-04T20:33:15.958Z,16.35
2023-05-04T20:35:44.133Z,16.26
2023-05-04T20:38:12.263Z,16.30
2023-05-04T20:40:40.000Z,16.36
2023-05-04T20:43:07.696Z,16.44
2023-05-04T20:45:35.451Z,16.42
2023-05-04T20:48:04.897Z,16.45
2023-05-04T20:50:32.726Z,16.50
2023-05-04T20:53:01.250Z,16.51
2023-05-04T20:55:29.037Z,16.44
2023-05-04T20:57:56.857Z,16.19
2023-05-04T21:00:25.318Z,16.10
2023-05-04T21:02:53.194Z,15.94
2023-05-04T21:05:22.676Z,16.06
2023-05-04T21:07:52.002Z,16.13
2023-05-04T21:10:20.254Z,16.12
2023-05-04T21:12:48.016Z,15.99
2023-05-04T21:15:16.507Z,15.84
2023-05-04T21:17:44.288Z,15.67
2023-05-04T21:20:12.298Z,15.76
2023-05-04T21:22:41.517Z,15.72
2023-05-04T21:25:09.689Z,15.75
2023-05-04T21:27:37.439Z,15.93
2023-05-04T21:30:07.120Z,16.03
2023-05-04T21:32:35.269Z,15.86
2023-05-04T21:35:04.504Z,15.80
2023-05-04T21:37:32.396Z,15.73
2023-05-04T21:40:01.866Z,15.71
2023-05-04T21:42:30.104Z,16.04
2023-05-04T21:44:58.282Z,16.00
2023-05-04T21:47:27.179Z,15.66
2023-05-04T21:49:55.812Z,15.67
2023-05-04T21:52:24.388Z,15.49
2023-05-04T21:54:52.133Z,15.44
2023-05-04T21:57:21.436Z,15.43
2023-05-04T21:59:49.750Z,15.25
2023-05-04T22:02:17.756Z,15.15
2023-05-04T22:04:45.842Z,15.15
2023-05-04T22:07:13.605Z,15.09
2023-05-04T22:09:41.660Z,15.07
2023-05-04T22:12:09.542Z,14.94
2023-05-04T22:14:40.433Z,14.90
2023-05-04T22:17:10.128Z,14.88
2023-05-04T22:19:38.172Z,14.79
2023-05-04T22:22:06.346Z,14.76
2023-05-04T22:24:34.196Z,14.87
2023-05-04T22:27:01.941Z,14.83
2023-05-04T22:29:29.851Z,14.80
2023-05-04T22:31:59.632Z,14.77
2023-05-04T22:34:27.328Z,14.80
2023-05-04T22:36:55.024Z,14.84
2023-05-04T22:39:22.940Z,14.91
2023-05-04T22:41:50.736Z,14.78
2023-05-04T22:44:18.555Z,14.13
2023-05-04T22:46:46.398Z,14.70
2023-05-04T22:49:15.621Z,14.50
2023-05-04T22:51:43.318Z,14.40
2023-05-04T22:54:11.166Z,14.47
2023-05-04T22:56:38.975Z,14.56
2023-05-04T22:59:07.131Z,14.33
2023-05-04T23:01:35.076Z,14.29
2023-05-04T23:04:03.251Z,14.32
2023-05-04T23:06:33.914Z,14.36
2023-05-04T23:09:03.805Z,14.25
2023-05-04T23:11:31.827Z,14.26
2023-05-04T23:13:59.620Z,14.29
2023-05-04T23:16:27.611Z,14.28
2023-05-04T23:18:55.868Z,14.05
2023-05-04T23:21:24.082Z,14.16
2023-05-04T23:23:53.396Z,14.01
2023-05-04T23:26:21.218Z,14.18
2023-05-04T23:28:48.982Z,14.35
2023-05-04T23:31:17.114Z,14.45
2023-05-04T23:33:45.322Z,14.44
2023-05-04T23:36:13.096Z,14.42
2023-05-04T23:38:40.990Z,14.42
2023-05-04T23:41:10.270Z,14.53
2023-05-04T23:43:38.306Z,14.28
2023-05-04T23:46:06.930Z,14.19
2023-05-04T23:48:34.730Z,14.27
2023-05-04T23:51:04.604Z,14.27
2023-05-04T23:53:33.685Z,14.26
2023-05-04T23:56:03.985Z,14.30
2023-05-04T23:58:34.688Z,14.20
